Have a Safe July 4th! 

Flight Track Log - Related Links

Times and Time Zones

All times are in EDT time to prevent confusion due to time zone crossing. See the SWA2139 flight status page for this flight to view local times or setup timezone preferences in your user account.

Time Position Orientation Groundspeed Altitude Reporting Facility
EDT Latitude Longitude Course Direction KTS MPH feet Rate Location/Type
Fri 08:36:04 AM 30.1131 -97.7175 284° West 179 206 5,100  Level Houston Center
Fri 08:37:05 AM 30.1567 -97.8014 301° West 285 328 7,700 3,220 Climbing Houston Center
Fri 08:38:07 AM 30.2097 -97.8847 306° West 297 342 11,700 3,024 Climbing Houston Center
Fri 08:39:08 AM 30.2364 -97.9908 286° West 350 403 13,900 2,488 Climbing Houston Center
Fri 08:40:00 AM 30.3421 -98.3428 284° West  Level Estimated
Fri 08:40:10 AM 30.2597 -98.1061 283° West 367 422 16,800  Level Houston Center
Fri 08:41:00 AM 30.3664 -98.4552 284° West  Level Estimated
Fri 08:41:12 AM 30.2856 -98.2356 283° West 382 440 19,700  Level Houston Center
Fri 08:42:13 AM 30.3089 -98.3500 283° West 392 451 21,800 1,951 Climbing Houston Center
Fri 08:43:15 AM 30.3353 -98.4761 284° West 406 467 23,700 2,032 Climbing Houston Center
Fri 08:44:17 AM 30.3608 -98.6086 283° West 415 478 26,000 2,098 Climbing Houston Center
Fri 08:45:18 AM 30.3864 -98.7406 283° West 416 479 28,000 2,049 Climbing Houston Center
Fri 08:46:20 AM 30.4144 -98.8714 284° West 414 476 30,200 2,244 Climbing Houston Center
Fri 08:47:21 AM 30.4433 -99.0189 283° West 399 459 32,600 2,098 Climbing Houston Center
Fri 08:48:23 AM 30.4672 -99.1386 283° West 390 449 34,500 1,645 Climbing Houston Center
Fri 08:49:25 AM 30.4914 -99.2572 283° West 382 440 36,000 732 Climbing Houston Center
Fri 08:50:26 AM 30.5131 -99.3750 282° West 376 433 36,000  Level Houston Center
Fri 08:51:28 AM 30.5353 -99.4894 283° West 368 423 36,000  Level Houston Center
Fri 08:52:30 AM 30.5583 -99.6042 283° West 367 422 36,000  Level Houston Center
Fri 08:53:32 AM 30.5847 -99.7425 283° West 368 423 36,000  Level Houston Center
Fri 08:54:33 AM 30.6072 -99.8600 283° West 373 429 36,000  Level Houston Center
Fri 08:55:35 AM 30.6308 -99.9781 283° West 376 433 36,000  Level Houston Center
Fri 08:56:37 AM 30.6558 -100.0967 284° West 379 436 36,000  Level Houston Center
Fri 08:57:39 AM 30.6792 -100.2161 283° West 377 434 36,000  Level Houston Center
Fri 08:58:41 AM 30.7014 -100.3322 283° West 377 434 36,000  Level Houston Center
Fri 08:59:43 AM 30.7300 -100.4703 284° West 374 430 36,000  Level Houston Center
Fri 09:00:44 AM 30.7533 -100.5878 283° West 376 433 36,000  Level Houston Center
Fri 09:01:46 AM 30.7764 -100.7047 283° West 372 428 36,000  Level Houston Center
Fri 09:02:48 AM 30.7983 -100.8222 282° West 371 427 36,000  Level Houston Center
Fri 09:03:50 AM 30.8222 -100.9411 283° West 378 435 36,000  Level Houston Center
Fri 09:04:52 AM 30.8442 -101.0581 282° West 374 430 36,000  Level Houston Center
Fri 09:05:54 AM 30.8731 -101.1969 284° West 371 427 36,000  Level Houston Center
Fri 09:06:55 AM 30.8978 -101.3139 284° West 373 429 36,000  Level Houston Center
Fri 09:07:57 AM 30.9169 -101.4336 281° West 376 433 36,000  Level Houston Center
Fri 09:08:14 AM 30.9231 -101.4622 284° West 374 430 36,000  Level Albuquerque Center
Fri 09:09:14 AM 30.9442 -101.5814 282° West 375 432 36,000  Level Albuquerque Center
Fri 09:10:15 AM 30.9672 -101.6997 283° West 376 433 36,000  Level Albuquerque Center
Fri 09:11:16 AM 30.9900 -101.8183 283° West 375 432 36,000  Level Albuquerque Center
Fri 09:12:16 AM 31.0122 -101.9397 282° West 375 432 36,000  Level Albuquerque Center
Fri 09:13:17 AM 31.0344 -102.0633 282° West 383 441 36,000  Level Albuquerque Center
Fri 09:14:18 AM 31.0567 -102.1825 282° West 379 436 36,000  Level Albuquerque Center
Fri 09:15:19 AM 31.0783 -102.3036 282° West 380 437 36,000  Level Albuquerque Center
Fri 09:16:20 AM 31.1008 -102.4244 282° West 381 438 36,000  Level Albuquerque Center
Fri 09:17:20 AM 31.1228 -102.5467 282° West 379 436 36,000  Level Albuquerque Center
Fri 09:18:21 AM 31.1442 -102.6664 282° West 375 432 36,000  Level Albuquerque Center
Fri 09:19:22 AM 31.1658 -102.7878 282° West 380 437 36,000  Level Albuquerque Center
Fri 09:20:23 AM 31.1919 -102.9311 282° West 379 436 36,000  Level Albuquerque Center
Fri 09:21:24 AM 31.2119 -103.0500 281° West 375 432 36,000  Level Albuquerque Center
Fri 09:22:24 AM 31.2336 -103.1692 282° West 376 433 36,000  Level Albuquerque Center
Fri 09:23:25 AM 31.2531 -103.2883 281° West 376 433 36,000  Level Albuquerque Center
Fri 09:24:26 AM 31.2750 -103.4067 282° West 372 428 36,000  Level Albuquerque Center
Fri 09:25:27 AM 31.2953 -103.5250 281° West 373 429 36,000  Level Albuquerque Center
Fri 09:26:28 AM 31.3161 -103.6436 282° West 373 429 36,000  Level Albuquerque Center
Fri 09:27:29 AM 31.3361 -103.7622 281° West 373 429 36,000  Level Albuquerque Center
Fri 09:28:30 AM 31.3550 -103.8756 281° West 373 429 36,000  Level Albuquerque Center
Fri 09:29:31 AM 31.3750 -103.9947 281° West 375 432 36,000  Level Albuquerque Center
Fri 09:30:32 AM 31.3964 -104.1133 282° West 375 432 36,000  Level Albuquerque Center
Fri 09:31:33 AM 31.4197 -104.2564 281° West 375 432 36,000  Level Albuquerque Center
Fri 09:32:34 AM 31.4397 -104.3758 281° West 376 433 36,000 -393 Level Albuquerque Center
Fri 09:33:35 AM 31.4581 -104.4958 280° West 377 434 35,200 -885 Descending Albuquerque Center
Fri 09:34:36 AM 31.4692 -104.6139 276° West 371 427 34,200 -934 Descending Albuquerque Center
Fri 09:35:37 AM 31.4819 -104.7317 277° West 369 425 33,300 -934 Descending Albuquerque Center
Fri 09:36:38 AM 31.4947 -104.8489 277° West 367 422 32,300 -934 Descending Albuquerque Center
Fri 09:37:39 AM 31.5072 -104.9700 277° West 374 430 31,400 -1,623 Descending Albuquerque Center
Fri 09:38:40 AM 31.5200 -105.0928 277° West 381 438 29,000 -2,508 Descending Albuquerque Center
Fri 09:39:41 AM 31.5308 -105.2106 276° West 371 427 26,300 -2,852 Descending Albuquerque Center
Fri 09:40:42 AM 31.5450 -105.3486 277° West 362 417 23,200 -2,754 Descending Albuquerque Center
Fri 09:41:43 AM 31.5547 -105.4575 276° West 341 392 20,700 -2,479 Descending Albuquerque Center
Fri 09:42:43 AM 31.5664 -105.5656 277° West 320 368 18,200 -2,331 Descending Albuquerque Center
Fri 09:43:44 AM 31.5731 -105.6689 274° West 314 361 16,000 -2,083 Descending Albuquerque Center
Fri 09:44:44 AM 31.5886 -105.7647 281° West 297 342 14,000 -1,983 Descending Albuquerque Center
Fri 09:45:45 AM 31.6256 -105.8478 298° West 283 326 12,000 -1,820 Descending Albuquerque Center
Fri 09:46:46 AM 31.6614 -105.9258 298° West 274 315 10,300 -1,736 Descending Albuquerque Center
Fri 09:47:46 AM 31.6928 -106.0031 296° West 258 297 8,500 -1,636 Descending Albuquerque Center
Fri 09:48:47 AM 31.7253 -106.0747 298° West 251 289 7,000 -992 Descending Albuquerque Center
Fri 09:49:47 AM 31.7539 -106.1500 294° West 231 266 6,500 -472 Descending Albuquerque Center
Fri 09:50:54 AM 31.7803 -106.2233 293° West 224 258 6,000 -516 Descending Albuquerque Center
Fri 09:51:55 AM 31.7950 -106.2739 289° West 170 196 5,400 -545 Descending Albuquerque Center
Fri 09:52:55 AM 31.7972 -106.3167 274° West 117 135 4,900 -639 Descending Albuquerque Center
Fri 09:53:57 AM 31.8011 -106.3553 277° West 123 142 4,100 -774 Descending Albuquerque Center
Fri 09:55:00 AM 31.8000 -106.3667 270° West  Level FlightAware Approximate
Fri 10:02:00 AM 31.8072 -106.3764 270° West  Level Estimated
Fri 10:03:00 AM 31.8072 -106.3764 270° West  Level Estimated
Fri 10:04:00 AM 31.8072 -106.3764 270° West  Level Estimated
Fri 10:05:00 AM 31.8072 -106.3764 270° West  Level Estimated
Fri 10:06:00 AM 31.8072 -106.3764 270° West  Level Estimated

Login

Don't have an account? Register now (free) for customized features, flight alerts, and more!